Time;durP1;ratioP1;P1;durP2;ratioP2;P2;SDS_P1;SDS_P2;PMS_P1;PMS_P2;Temp;Humidity;BMP_temperature;BMP_pressure;BME280_temperature;BME280_humidity;BME280_pressure;Samples;Min_cycle;Max_cycle;Signal;HPM_P1;HPM_P2
2023/09/06 00:01:16;;;;;;;5.63;2.92;;;;;;;28.19;41.39;99459.56;4992005;28;20050;-76
2023/09/06 00:03:41;;;;;;;6.47;3.38;;;;;;;28.21;41.58;99469.16;5007327;28;20465;-76
2023/09/06 00:06:09;;;;;;;6.60;3.17;;;;;;;28.19;41.42;99468.47;5003318;28;20027;-76
2023/09/06 00:08:34;;;;;;;7.35;3.55;;;;;;;28.19;41.38;99464.94;4992341;28;20026;-75
2023/09/06 00:11:06;;;;;;;5.85;3.55;;;;;;;28.20;41.62;99471.97;4992186;28;20053;-76
2023/09/06 00:13:34;;;;;;;7.25;3.42;;;;;;;28.19;41.79;99464.94;4992080;28;20015;-75
2023/09/06 00:16:01;;;;;;;5.97;3.33;;;;;;;28.18;41.57;99463.25;4992151;28;20042;-76
2023/09/06 00:18:27;;;;;;;6.57;3.25;;;;;;;28.17;41.57;99462.38;4992096;28;20105;-76
2023/09/06 00:20:53;;;;;;;6.93;3.42;;;;;;;28.17;41.79;99458.88;4992228;28;20399;-76
2023/09/06 00:23:20;;;;;;;7.47;3.28;;;;;;;28.17;41.68;99461.53;4992261;28;20037;-75
2023/09/06 00:25:46;;;;;;;5.72;3.10;;;;;;;28.17;41.55;99466.91;4992292;28;20410;-75
2023/09/06 00:28:15;;;;;;;5.90;3.17;;;;;;;28.15;41.70;99467.03;4991842;28;20391;-75
2023/09/06 00:30:44;;;;;;;5.72;3.00;;;;;;;28.16;41.72;99460.69;4992033;28;20054;-76
2023/09/06 00:33:10;;;;;;;6.95;3.70;;;;;;;28.15;41.60;99454.47;4990767;28;20021;-76
2023/09/06 00:35:38;;;;;;;6.90;3.20;;;;;;;28.15;41.96;99454.47;4992233;28;20097;-76
2023/09/06 00:38:04;;;;;;;5.43;3.30;;;;;;;28.13;41.48;99459.13;4991973;28;20022;-76
2023/09/06 00:40:30;;;;;;;6.60;3.03;;;;;;;28.13;41.73;99456.44;4972590;28;20027;-76
2023/09/06 00:42:59;;;;;;;7.75;3.40;;;;;;;28.14;41.60;99458.13;4990552;28;20031;-76
2023/09/06 00:45:39;;;;;;;6.05;3.30;;;;;;;28.12;41.77;99452.09;4976152;28;20027;-76
2023/09/06 00:48:05;;;;;;;6.18;3.05;;;;;;;28.12;41.63;99459.25;4980583;28;20114;-76
2023/09/06 00:50:36;;;;;;;6.57;3.30;;;;;;;28.09;41.67;99449.66;4995526;28;20034;-75
2023/09/06 00:53:05;;;;;;;6.03;3.28;;;;;;;28.11;41.69;99453.06;4995680;28;20089;-75
2023/09/06 00:55:31;;;;;;;7.43;3.70;;;;;;;28.10;41.88;99446.03;4995587;28;20484;-76
2023/09/06 00:57:57;;;;;;;7.65;3.33;;;;;;;28.10;41.94;99451.38;4994992;28;20061;-76
2023/09/06 01:00:22;;;;;;;7.32;3.10;;;;;;;28.10;41.94;99440.66;4995317;28;20054;-75
2023/09/06 01:02:49;;;;;;;7.25;3.60;;;;;;;28.09;42.18;99433.56;4995097;28;20413;-76
2023/09/06 01:05:16;;;;;;;6.85;3.60;;;;;;;28.09;42.04;99433.56;5006654;28;20211;-76
2023/09/06 01:07:55;;;;;;;6.88;3.30;;;;;;;28.08;42.18;99433.75;4991143;28;20022;-76
2023/09/06 01:10:20;;;;;;;7.65;3.30;;;;;;;28.08;42.28;99431.88;4975378;28;20495;-76
2023/09/06 01:12:47;;;;;;;7.97;3.78;;;;;;;28.07;42.28;99430.19;4975696;28;20030;-76
2023/09/06 01:15:12;;;;;;;5.68;3.40;;;;;;;28.06;41.92;99428.50;4975861;28;20031;-76
2023/09/06 01:17:41;;;;;;;6.68;3.25;;;;;;;28.08;41.92;99431.88;4975775;28;20030;-76
2023/09/06 01:20:38;;;;;;;6.28;3.20;;;;;;;28.06;41.98;99428.50;4975530;28;20026;-76
2023/09/06 01:23:22;;;;;;;;;;;;;;;28.07;42.23;99434.69;4976311;28;20042;-76
2023/09/06 01:25:48;;;;;;;7.82;3.33;;;;;;;28.05;42.05;99432.19;4975214;28;19910;-76
2023/09/06 01:28:14;;;;;;;6.88;3.38;;;;;;;28.04;42.45;99441.22;4991182;28;20030;-76
2023/09/06 01:30:39;;;;;;;6.55;3.30;;;;;;;28.04;42.25;99435.00;4994710;28;20030;-76
2023/09/06 01:33:05;;;;;;;6.85;3.47;;;;;;;28.06;42.24;99431.19;4994932;28;20186;-76
2023/09/06 01:35:30;;;;;;;6.55;3.10;;;;;;;28.02;42.27;99429.75;4995056;28;20046;-76
2023/09/06 01:37:56;;;;;;;7.32;3.80;;;;;;;28.01;42.38;99428.94;4993472;28;20026;-76
2023/09/06 01:40:26;;;;;;;5.07;3.08;;;;;;;28.03;42.04;99425.25;4994414;28;20022;-76
2023/09/06 01:42:52;;;;;;;7.38;3.67;;;;;;;28.01;42.27;99425.41;4994176;28;20026;-76
2023/09/06 01:45:17;;;;;;;5.70;3.20;;;;;;;28.01;42.33;99422.72;4993159;28;20070;-76
2023/09/06 01:47:49;;;;;;;7.22;3.17;;;;;;;27.97;42.48;99426.66;4994587;28;20026;-76
2023/09/06 01:50:20;;;;;;;7.60;3.70;;;;;;;27.98;41.97;99425.66;4994470;28;20065;-77
2023/09/06 01:52:46;;;;;;;6.60;3.08;;;;;;;27.96;42.13;99420.47;4993338;28;20022;-76
2023/09/06 01:55:12;;;;;;;5.93;3.42;;;;;;;27.98;42.24;99428.34;4993525;28;20022;-76
2023/09/06 01:57:37;;;;;;;6.22;3.10;;;;;;;27.96;42.18;99427.66;4994235;28;20172;-76
2023/09/06 02:02:47;;;;;;;5.35;3.25;;;;;;;27.96;42.22;99424.97;4993678;28;20058;-76
2023/09/06 02:05:12;;;;;;;5.70;3.20;;;;;;;27.95;42.36;99421.47;5005040;28;20036;-76
2023/09/06 02:07:38;;;;;;;7.10;3.42;;;;;;;27.97;42.19;99421.28;5012420;28;20261;-76
2023/09/06 02:10:04;;;;;;;6.45;3.28;;;;;;;27.97;42.29;99413.25;4993788;28;20097;-76
2023/09/06 02:12:29;;;;;;;6.75;3.30;;;;;;;27.96;42.05;99416.91;4992714;28;20549;-76
2023/09/06 02:14:56;;;;;;;7.00;3.75;;;;;;;27.94;42.42;99419.75;4993856;28;20031;-76
2023/09/06 02:17:24;;;;;;;5.47;3.33;;;;;;;27.94;42.14;99413.53;4993647;28;20104;-76
2023/09/06 02:19:49;;;;;;;5.25;3.15;;;;;;;27.91;42.01;99408.44;4993917;28;20490;-76
2023/09/06 02:22:15;;;;;;;6.18;3.28;;;;;;;27.92;42.06;99415.50;4993620;28;20030;-76
2023/09/06 02:24:40;;;;;;;5.53;3.22;;;;;;;27.91;42.41;99420.03;4993491;28;20032;-76
2023/09/06 02:27:06;;;;;;;6.32;3.33;;;;;;;27.92;42.25;99420.88;4993526;28;20050;-76
2023/09/06 02:29:31;;;;;;;7.57;3.53;;;;;;;27.91;42.40;99413.81;4993651;28;20025;-75
2023/09/06 02:31:57;;;;;;;5.85;3.20;;;;;;;27.92;42.13;99415.50;4993531;28;20505;-76
2023/09/06 02:34:22;;;;;;;6.93;3.30;;;;;;;27.91;42.09;99405.78;4993655;28;20037;-76
2023/09/06 02:36:48;;;;;;;7.45;3.42;;;;;;;27.91;42.09;99405.78;4993437;28;20452;-76
2023/09/06 02:39:13;;;;;;;5.45;3.20;;;;;;;27.88;42.25;99399.72;4991940;28;20034;-76
2023/09/06 02:41:39;;;;;;;5.80;3.08;;;;;;;27.91;42.43;99408.44;4992934;28;20069;-76
2023/09/06 02:44:05;;;;;;;5.63;3.15;;;;;;;27.87;42.46;99398.03;4993280;28;20048;-76
2023/09/06 02:46:33;;;;;;;5.63;3.30;;;;;;;27.86;42.17;99395.47;4993586;28;20475;-76
2023/09/06 02:49:10;;;;;;;6.50;3.50;;;;;;;27.87;42.33;99399.84;4993227;28;20026;-76
2023/09/06 02:51:37;;;;;;;5.95;3.60;;;;;;;27.85;42.14;99399.97;4993176;28;20422;-76
2023/09/06 02:54:03;;;;;;;6.03;2.97;;;;;;;27.82;42.21;99394.91;4993009;28;20463;-76
2023/09/06 02:56:28;;;;;;;6.22;3.67;;;;;;;27.83;42.25;99387.69;4993171;28;20037;-76
2023/09/06 02:58:53;;;;;;;5.30;2.90;;;;;;;27.82;42.42;99388.69;4991850;28;20022;-76
2023/09/06 03:01:19;;;;;;;7.43;3.40;;;;;;;27.81;42.36;99387.88;4992134;28;20556;-75
2023/09/06 03:03:47;;;;;;;5.85;3.25;;;;;;;27.81;42.44;99387.88;4993201;28;20105;-75
2023/09/06 03:06:17;;;;;;;6.65;3.25;;;;;;;27.81;42.43;99378.97;5011888;28;20064;-76
2023/09/06 03:08:46;;;;;;;5.80;3.33;;;;;;;27.80;42.33;99386.13;4998493;28;20033;-76
2023/09/06 03:11:14;;;;;;;6.00;3.33;;;;;;;27.79;42.17;99389.81;4993025;28;20030;-76
2023/09/06 03:13:41;;;;;;;6.40;3.65;;;;;;;27.77;42.50;99391.81;4993040;28;20692;-76
2023/09/06 03:16:07;;;;;;;5.65;3.08;;;;;;;27.77;42.44;99386.44;4992945;28;20022;-76
2023/09/06 03:18:33;;;;;;;6.63;3.63;;;;;;;27.77;42.34;99386.44;4988497;28;20110;-75
2023/09/06 03:21:04;;;;;;;5.78;3.17;;;;;;;27.74;42.35;99390.25;4972993;28;20558;-76
2023/09/06 03:23:32;;;;;;;6.03;3.40;;;;;;;27.74;42.42;99381.34;4973308;28;20033;-76
2023/09/06 03:25:58;;;;;;;5.78;2.95;;;;;;;27.75;42.29;99380.38;4973406;28;20085;-76
2023/09/06 03:28:25;;;;;;;5.78;3.00;;;;;;;27.73;42.33;99374.28;4973408;28;20019;-76
2023/09/06 03:30:52;;;;;;;6.43;3.10;;;;;;;27.72;42.38;99372.59;4973089;28;20035;-76
2023/09/06 03:33:17;;;;;;;6.72;3.05;;;;;;;27.72;42.29;99364.56;4973135;28;20055;-76
2023/09/06 03:35:46;;;;;;;6.50;3.15;;;;;;;27.71;42.58;99370.91;4972740;28;20061;-76
2023/09/06 03:38:15;;;;;;;5.60;3.30;;;;;;;27.70;42.23;99380.78;4973246;28;20019;-76
2023/09/06 03:40:42;;;;;;;7.00;3.40;;;;;;;27.68;42.31;99368.50;4972971;28;20035;-76
2023/09/06 03:43:19;;;;;;;5.10;3.10;;;;;;;27.66;42.25;99374.03;4973066;28;20411;-75
2023/09/06 03:45:46;;;;;;;7.72;3.70;;;;;;;27.68;42.48;99376.53;4973499;28;20030;-76
2023/09/06 03:48:16;;;;;;;5.85;3.15;;;;;;;27.66;42.49;99373.16;4973243;28;20035;-76
2023/09/06 03:50:43;;;;;;;5.05;3.03;;;;;;;27.67;42.56;99377.53;4972586;28;20030;-76
2023/09/06 03:53:09;;;;;;;5.57;3.38;;;;;;;27.65;42.57;99374.16;4973047;28;20030;-76
2023/09/06 03:55:34;;;;;;;6.03;3.38;;;;;;;27.64;42.56;99375.97;4987282;28;20030;-76
2023/09/06 03:58:03;;;;;;;5.13;2.97;;;;;;;27.63;42.20;99368.06;4992471;28;20018;-76
2023/09/06 04:00:31;;;;;;;5.20;3.33;;;;;;;27.63;42.46;99378.78;4992461;28;20029;-76
2023/09/06 04:02:57;;;;;;;5.90;3.25;;;;;;;27.63;42.25;99378.78;4992316;28;20046;-76
2023/09/06 04:05:27;;;;;;;5.38;3.17;;;;;;;27.60;42.45;99375.41;5004522;28;20030;-76
2023/09/06 04:07:57;;;;;;;5.38;3.10;;;;;;;27.59;42.26;99376.41;5012099;28;20595;-76
2023/09/06 04:10:25;;;;;;;4.88;3.08;;;;;;;27.58;42.57;99377.41;5011990;28;20065;-76
2023/09/06 04:12:53;;;;;;;5.82;3.10;;;;;;;27.56;42.71;99379.31;5012204;28;20112;-76
2023/09/06 04:15:21;;;;;;;5.68;3.53;;;;;;;27.54;42.35;99373.25;5011872;28;20038;-76
2023/09/06 04:17:49;;;;;;;5.75;3.80;;;;;;;27.56;42.43;99376.63;5014881;28;20030;-76
2023/09/06 04:20:23;;;;;;;5.15;3.28;;;;;;;27.56;42.23;99382.00;5009247;28;20204;-76
2023/09/06 04:22:49;;;;;;;5.28;2.80;;;;;;;27.55;42.48;99372.28;4996056;28;20034;-76
2023/09/06 04:25:20;;;;;;;5.47;3.10;;;;;;;27.54;42.66;99373.25;4995803;28;20042;-76
2023/09/06 04:27:46;;;;;;;6.28;3.20;;;;;;;27.55;42.11;99377.63;4995971;28;20042;-76
2023/09/06 04:30:15;;;;;;;5.50;3.22;;;;;;;27.54;42.62;99378.63;4995595;28;20042;-76
2023/09/06 04:32:42;;;;;;;5.88;3.10;;;;;;;27.54;42.67;99380.44;4995792;28;20030;-76
2023/09/06 04:35:08;;;;;;;6.65;3.40;;;;;;;27.54;42.17;99375.94;4995545;28;20030;-76
2023/09/06 04:37:35;;;;;;;6.43;3.50;;;;;;;27.54;42.21;99375.94;4994120;28;20034;-76
2023/09/06 04:40:01;;;;;;;4.88;3.00;;;;;;;27.55;41.87;99377.63;4976252;28;20570;-76
2023/09/06 04:42:26;;;;;;;4.63;2.72;;;;;;;27.53;42.42;99376.06;4976215;28;20088;-76
2023/09/06 04:44:51;;;;;;;5.57;3.63;;;;;;;27.53;42.24;99368.91;4976250;28;20395;-76
2023/09/06 04:47:17;;;;;;;5.15;3.28;;;;;;;27.51;42.07;99376.25;4974885;28;20023;-76
2023/09/06 04:49:45;;;;;;;5.75;3.17;;;;;;;27.50;41.83;99371.84;4975733;28;20399;-76
2023/09/06 04:52:11;;;;;;;4.93;3.05;;;;;;;27.49;41.85;99372.81;4992948;28;20487;-76
2023/09/06 04:54:36;;;;;;;5.03;2.88;;;;;;;27.50;41.78;99377.19;4995508;28;20030;-76
2023/09/06 04:57:02;;;;;;;5.70;3.17;;;;;;;27.49;42.14;99378.19;4995307;28;20033;-76
2023/09/06 04:59:27;;;;;;;5.30;2.92;;;;;;;27.46;41.98;99378.47;4995364;28;20022;-76
2023/09/06 05:01:53;;;;;;;6.00;3.17;;;;;;;27.45;41.92;99379.47;4994836;28;20055;-76
2023/09/06 05:04:19;;;;;;;4.97;3.20;;;;;;;27.42;41.96;99377.06;4998389;28;20095;-76
2023/09/06 05:06:44;;;;;;;4.68;3.17;;;;;;;27.40;42.15;99373.69;5011199;28;20018;-76
2023/09/06 05:09:10;;;;;;;6.10;3.00;;;;;;;27.38;42.45;99380.97;4987882;28;20419;-76
2023/09/06 05:11:36;;;;;;;5.50;3.28;;;;;;;27.38;41.90;99391.69;4995098;28;20072;-76
2023/09/06 05:14:01;;;;;;;5.65;2.88;;;;;;;27.34;42.45;99392.00;4995209;28;20030;-76
2023/09/06 05:16:26;;;;;;;4.70;2.70;;;;;;;27.36;41.93;99393.69;4995221;28;20446;-76
2023/09/06 05:18:52;;;;;;;6.05;2.88;;;;;;;27.36;42.44;99404.41;4994808;28;20034;-76
2023/09/06 05:21:18;;;;;;;6.05;3.28;;;;;;;27.32;42.15;99396.63;4994756;28;20553;-77
2023/09/06 05:23:43;;;;;;;5.50;2.85;;;;;;;27.34;42.39;99397.34;4995325;28;20058;-76
2023/09/06 05:26:10;;;;;;;5.25;2.88;;;;;;;27.32;42.24;99404.66;4995104;28;20102;-77
2023/09/06 05:28:35;;;;;;;5.72;3.05;;;;;;;27.29;42.55;99396.91;4992316;28;20121;-77
2023/09/06 05:31:02;;;;;;;4.50;3.20;;;;;;;27.30;42.56;99395.06;4994690;28;20129;-76
2023/09/06 05:33:27;;;;;;;5.30;3.00;;;;;;;27.30;42.59;99395.06;4994266;28;20026;-76
2023/09/06 05:35:54;;;;;;;4.85;3.40;;;;;;;27.29;42.49;99396.06;4994888;28;20029;-76
2023/09/06 05:38:20;;;;;;;5.68;2.78;;;;;;;27.25;42.85;99398.16;4994845;28;20097;-76
2023/09/06 05:40:45;;;;;;;5.05;3.15;;;;;;;27.26;42.64;99394.50;4994481;28;20473;-76
2023/09/06 05:43:11;;;;;;;5.65;3.00;;;;;;;27.25;42.86;99398.16;4978736;28;20027;-76
2023/09/06 05:45:36;;;;;;;6.22;3.67;;;;;;;27.23;42.89;99397.47;4975138;28;20084;-77
2023/09/06 05:48:02;;;;;;;4.82;3.30;;;;;;;27.21;43.13;99402.09;4981007;28;20390;-76
2023/09/06 05:50:28;;;;;;;4.75;3.15;;;;;;;27.20;43.25;99400.41;4994300;28;20454;-76
2023/09/06 05:52:53;;;;;;;5.45;3.03;;;;;;;27.21;43.24;99402.94;4994438;28;20037;-77
2023/09/06 05:55:19;;;;;;;5.60;3.20;;;;;;;27.22;42.93;99403.81;4994354;28;20501;-76
2023/09/06 05:57:44;;;;;;;4.60;2.65;;;;;;;27.20;43.21;99403.06;4994481;28;20022;-76
2023/09/06 06:00:15;;;;;;;4.63;2.88;;;;;;;27.20;43.44;99405.75;4994364;28;20030;-75
2023/09/06 06:02:44;;;;;;;4.45;3.13;;;;;;;27.19;43.51;99398.72;4993809;28;20050;-77
2023/09/06 06:05:12;;;;;;;4.70;2.80;;;;;;;27.18;43.08;99407.72;5004774;28;20025;-76
2023/09/06 06:07:38;;;;;;;4.70;3.17;;;;;;;27.17;43.58;99406.88;5008554;28;20496;-76
2023/09/06 06:10:04;;;;;;;4.65;2.90;;;;;;;27.19;43.41;99414.78;4993763;28;20464;-76
2023/09/06 06:12:29;;;;;;;5.53;3.05;;;;;;;27.19;43.40;99409.41;4993653;28;20038;-76
2023/09/06 06:14:56;;;;;;;4.72;3.10;;;;;;;27.19;43.32;99412.09;4993796;28;20661;-76
2023/09/06 06:17:21;;;;;;;6.25;2.92;;;;;;;27.19;43.75;99425.50;4993904;28;20402;-76
2023/09/06 06:19:48;;;;;;;7.57;3.30;;;;;;;27.18;43.72;99418.44;4992641;28;20034;-76
2023/09/06 06:22:14;;;;;;;4.93;3.15;;;;;;;27.16;43.97;99428.47;4993898;28;20026;-76
2023/09/06 06:24:43;;;;;;;5.22;3.30;;;;;;;27.16;43.96;99425.78;4993610;28;20073;-76
2023/09/06 06:27:08;;;;;;;5.93;3.05;;;;;;;27.15;43.57;99430.28;4993791;28;20057;-76
2023/09/06 06:29:34;;;;;;;5.65;3.22;;;;;;;27.16;43.65;99433.81;4993318;28;20166;-76
2023/09/06 06:31:59;;;;;;;5.95;3.50;;;;;;;27.14;43.74;99433.94;4993646;28;20140;-76
2023/09/06 06:34:25;;;;;;;5.57;3.40;;;;;;;27.12;43.53;99433.22;4993826;28;20026;-76
2023/09/06 06:36:50;;;;;;;5.68;3.47;;;;;;;27.14;43.99;99422.38;5008475;28;20034;-76
2023/09/06 06:39:16;;;;;;;5.22;3.28;;;;;;;27.13;43.60;99420.69;4992780;28;20120;-76
2023/09/06 06:41:42;;;;;;;5.75;3.15;;;;;;;27.13;43.93;99421.53;4993474;28;20018;-77
2023/09/06 06:44:08;;;;;;;5.68;2.80;;;;;;;27.13;43.72;99431.38;4979414;28;20407;-76
2023/09/06 06:46:35;;;;;;;4.78;3.28;;;;;;;27.13;44.09;99431.38;4973952;28;20486;-76
2023/09/06 06:49:04;;;;;;;5.45;3.28;;;;;;;27.15;43.68;99437.44;4974043;28;20030;-75
2023/09/06 06:51:34;;;;;;;5.50;3.10;;;;;;;27.15;43.66;99434.78;4979800;28;20038;-76
2023/09/06 06:54:04;;;;;;;5.80;3.47;;;;;;;27.15;43.67;99437.44;4993175;28;20513;-76
2023/09/06 06:56:29;;;;;;;4.97;3.22;;;;;;;27.13;43.79;99437.59;4993316;28;20498;-76
2023/09/06 06:58:55;;;;;;;6.45;3.03;;;;;;;27.13;43.96;99442.09;4992923;28;20035;-76
2023/09/06 07:01:24;;;;;;;6.00;3.38;;;;;;;27.15;43.66;99435.63;4992822;28;20169;-76
2023/09/06 07:03:50;;;;;;;5.60;3.30;;;;;;;27.14;43.70;99441.97;4993236;28;20398;-76
2023/09/06 07:06:16;;;;;;;6.15;3.38;;;;;;;27.14;44.05;99449.16;4973857;28;20036;-76
2023/09/06 07:08:41;;;;;;;5.28;3.40;;;;;;;27.14;44.11;99444.66;4992980;28;20391;-77
2023/09/06 07:11:07;;;;;;;4.40;2.95;;;;;;;27.18;44.03;99445.22;4992871;28;20058;-76
2023/09/06 07:13:33;;;;;;;4.28;2.80;;;;;;;27.17;44.02;99443.53;4991444;28;20030;-77
2023/09/06 07:15:59;;;;;;;5.53;3.47;;;;;;;27.17;43.55;99448.91;4992690;28;20109;-76
2023/09/06 07:18:24;;;;;;;6.15;3.50;;;;;;;27.22;43.83;99454.69;4993006;28;20027;-76
2023/09/06 07:20:50;;;;;;;6.63;3.28;;;;;;;27.22;43.64;99468.09;4976537;28;20580;-76
2023/09/06 07:23:16;;;;;;;4.82;3.10;;;;;;;27.24;43.37;99460.75;4972211;28;20454;-75
2023/09/06 07:25:46;;;;;;;5.57;3.10;;;;;;;27.24;43.47;99460.75;4973466;28;20043;-76
2023/09/06 07:28:14;;;;;;;5.43;3.42;;;;;;;27.22;43.83;99460.06;4971702;28;20115;-75
2023/09/06 07:30:41;;;;;;;4.72;3.22;;;;;;;27.23;43.84;99472.47;4988529;28;20105;-76
2023/09/06 07:33:07;;;;;;;4.53;3.20;;;;;;;27.25;43.54;99473.16;4992517;28;20386;-76
2023/09/06 07:35:32;;;;;;;6.55;3.30;;;;;;;27.26;43.35;99479.38;4992590;28;20113;-76
2023/09/06 07:37:58;;;;;;;5.60;3.20;;;;;;;27.27;43.11;99467.69;4992419;28;20505;-76
2023/09/06 07:40:24;;;;;;;5.57;3.10;;;;;;;27.28;43.40;99467.56;4992726;28;20438;-77
2023/09/06 07:42:49;;;;;;;6.00;3.58;;;;;;;27.28;43.32;99462.19;4992269;28;20045;-76
2023/09/06 07:45:14;;;;;;;4.55;3.22;;;;;;;27.29;43.66;99485.31;4992079;28;20545;-76
2023/09/06 07:47:40;;;;;;;5.93;3.10;;;;;;;27.28;43.10;99472.91;4991144;28;20033;-76
2023/09/06 07:50:06;;;;;;;6.28;3.20;;;;;;;27.31;43.35;99477.97;4981551;28;20456;-76
2023/09/06 07:52:32;;;;;;;4.82;3.13;;;;;;;27.31;43.33;99483.34;4978287;28;20061;-76
2023/09/06 07:54:58;;;;;;;5.53;3.33;;;;;;;27.32;43.23;99490.38;4996525;28;20033;-76
2023/09/06 07:57:24;;;;;;;7.20;3.42;;;;;;;27.30;43.10;99492.38;4996262;28;20097;-76
2023/09/06 07:59:50;;;;;;;6.53;3.35;;;;;;;27.31;43.25;99494.06;4996456;28;20027;-76
2023/09/06 08:02:15;;;;;;;4.97;3.40;;;;;;;27.30;43.45;99487.00;4996312;28;20414;-76
2023/09/06 08:04:41;;;;;;;5.10;3.50;;;;;;;27.31;43.21;99488.69;4995692;28;20022;-75
2023/09/06 08:07:06;;;;;;;6.43;3.60;;;;;;;27.32;43.52;99501.09;4996524;28;20034;-76
2023/09/06 08:09:32;;;;;;;5.70;3.20;;;;;;;27.33;43.27;99496.59;4995851;28;20026;-76
2023/09/06 08:11:57;;;;;;;6.75;3.58;;;;;;;27.32;43.37;99494.91;4995824;28;20026;-76
2023/09/06 08:14:23;;;;;;;5.53;3.20;;;;;;;27.31;43.16;99495.91;4996158;28;20033;-76
2023/09/06 08:16:48;;;;;;;5.78;3.40;;;;;;;27.34;43.10;99503.66;4996020;28;20030;-76
2023/09/06 08:19:13;;;;;;;5.97;3.30;;;;;;;27.34;43.27;99499.16;4995863;28;20049;-77
2023/09/06 08:21:40;;;;;;;6.47;3.47;;;;;;;27.33;43.28;99494.78;4996100;28;20041;-76
2023/09/06 08:24:05;;;;;;;5.15;3.10;;;;;;;27.34;43.14;99499.16;4996033;28;20030;-76
2023/09/06 08:26:31;;;;;;;5.00;2.70;;;;;;;27.34;43.14;99493.78;4995784;28;20034;-76
2023/09/06 08:28:56;;;;;;;6.00;3.63;;;;;;;27.34;43.54;99493.78;4995738;28;20026;-76
2023/09/06 08:31:22;;;;;;;6.53;3.28;;;;;;;27.34;43.63;99498.28;4995595;28;20034;-76
2023/09/06 08:33:49;;;;;;;4.68;3.45;;;;;;;27.37;43.05;99497.19;4995810;28;20027;-75
2023/09/06 08:36:14;;;;;;;7.65;3.70;;;;;;;27.37;43.14;99498.03;4995657;28;20109;-76
2023/09/06 08:38:39;;;;;;;6.13;3.30;;;;;;;27.37;43.31;99494.50;4995952;28;20441;-76
2023/09/06 08:41:07;;;;;;;4.90;2.95;;;;;;;27.36;43.47;99508.88;4995252;28;20019;-77
2023/09/06 08:43:42;;;;;;;5.50;2.90;;;;;;;27.37;43.47;99502.53;4995549;28;20042;-75
2023/09/06 08:46:22;;;;;;;5.35;3.10;;;;;;;27.40;43.01;99491.56;4995631;28;20088;-76
2023/09/06 08:48:48;;;;;;;6.38;3.38;;;;;;;27.39;43.49;99495.19;4995629;28;20490;-76
2023/09/06 08:51:15;;;;;;;8.00;3.67;;;;;;;27.41;43.28;99493.25;4995105;28;20038;-77
2023/09/06 08:53:42;;;;;;;5.25;3.30;;;;;;;27.40;43.29;99502.28;4995561;28;20127;-76
2023/09/06 08:56:08;;;;;;;4.90;3.00;;;;;;;27.41;43.27;99487.91;4995151;28;20038;-77
2023/09/06 08:58:35;;;;;;;4.88;3.28;;;;;;;27.43;43.16;99502.00;4995476;28;20490;-76
2023/09/06 09:01:03;;;;;;;6.40;3.15;;;;;;;27.42;43.32;99500.31;4995185;28;20065;-77
2023/09/06 09:03:29;;;;;;;5.50;3.30;;;;;;;27.45;43.44;99508.09;4995152;28;20065;-77
2023/09/06 09:06:06;;;;;;;6.38;3.28;;;;;;;27.43;43.11;99507.34;5011632;28;20058;-76
2023/09/06 09:08:32;;;;;;;4.10;3.00;;;;;;;27.43;43.50;99504.69;5000814;28;20525;-76
2023/09/06 09:11:15;;;;;;;5.15;3.38;;;;;;;27.44;43.33;99509.03;4994922;28;20034;-76
2023/09/06 09:13:42;;;;;;;4.28;2.92;;;;;;;27.46;43.08;99507.94;4993855;28;20033;-76
2023/09/06 09:16:08;;;;;;;5.25;3.30;;;;;;;27.46;43.09;99517.81;4995148;28;20030;-76
2023/09/06 09:18:34;;;;;;;5.05;3.08;;;;;;;27.45;43.20;99510.78;4994568;28;20146;-76
2023/09/06 09:21:03;;;;;;;6.25;3.22;;;;;;;27.48;42.94;99515.84;4993588;28;20509;-76
2023/09/06 09:23:30;;;;;;;5.57;3.17;;;;;;;27.44;43.27;99509.03;4994568;28;20046;-76
2023/09/06 09:25:56;;;;;;;5.40;3.03;;;;;;;27.44;43.44;99509.91;4994979;28;20407;-76
2023/09/06 09:28:22;;;;;;;4.85;3.10;;;;;;;27.43;42.97;99510.91;4994444;28;20034;-76
2023/09/06 09:30:48;;;;;;;5.45;3.10;;;;;;;27.43;43.30;99508.22;4994798;28;20118;-77
2023/09/06 09:33:14;;;;;;;5.15;2.90;;;;;;;27.43;43.04;99504.69;4994771;28;20034;-76
2023/09/06 09:35:40;;;;;;;5.50;3.38;;;;;;;27.44;43.11;99506.38;4994609;28;20117;-76
2023/09/06 09:38:10;;;;;;;4.25;2.83;;;;;;;27.41;43.23;99503.97;4994563;28;20031;-77
2023/09/06 09:40:36;;;;;;;5.20;2.97;;;;;;;27.39;43.23;99490.69;4986811;28;20041;-76
2023/09/06 09:43:04;;;;;;;5.18;3.30;;;;;;;27.41;43.21;99501.28;4975101;28;20026;-76
2023/09/06 09:45:39;;;;;;;4.10;2.90;;;;;;;27.42;43.22;99494.94;4975110;28;20031;-76
2023/09/06 09:48:07;;;;;;;4.57;2.85;;;;;;;27.41;43.34;99493.25;4973481;28;20070;-76
2023/09/06 09:50:34;;;;;;;5.00;3.50;;;;;;;27.42;42.99;99493.13;4982213;28;20121;-76
2023/09/06 09:53:02;;;;;;;4.43;3.03;;;;;;;27.43;43.10;99502.00;4994159;28;20113;-76
2023/09/06 09:55:32;;;;;;;3.60;2.80;;;;;;;27.44;43.19;99487.59;4992977;28;20045;-76
2023/09/06 09:58:01;;;;;;;3.80;2.53;;;;;;;27.44;43.22;99487.59;4990852;28;20659;-76
2023/09/06 10:00:29;;;;;;;4.90;2.80;;;;;;;27.44;42.74;99488.47;4987977;28;20031;-77
2023/09/06 10:03:00;;;;;;;5.35;3.03;;;;;;;27.46;42.92;99485.66;4973356;28;20082;-76
2023/09/06 10:05:29;;;;;;;4.53;3.22;;;;;;;27.47;43.24;99490.03;4999678;28;20036;-76
2023/09/06 10:08:00;;;;;;;7.90;2.92;;;;;;;27.48;43.21;99497.09;5013375;28;20029;-76
2023/09/06 10:10:27;;;;;;;4.20;2.78;;;;;;;27.49;43.08;99496.09;5007588;28;20038;-76
2023/09/06 10:12:53;;;;;;;5.75;3.05;;;;;;;27.50;43.42;99496.94;4994089;28;20077;-77
2023/09/06 10:15:20;;;;;;;4.57;2.85;;;;;;;27.49;43.12;99490.72;4993384;28;20050;-76
2023/09/06 10:17:50;;;;;;;6.28;3.25;;;;;;;27.52;43.05;99484.25;4994075;28;20113;-76
2023/09/06 10:20:22;;;;;;;5.85;3.30;;;;;;;27.52;43.18;99486.94;4993777;28;20117;-76
2023/09/06 10:22:49;;;;;;;5.38;3.00;;;;;;;27.52;42.77;99484.25;4993680;28;20033;-76
2023/09/06 10:25:16;;;;;;;4.55;2.90;;;;;;;27.52;42.73;99484.25;4993781;28;20026;-76
2023/09/06 10:27:55;;;;;;;4.47;2.88;;;;;;;27.54;42.71;99488.50;4993838;28;20155;-76
2023/09/06 10:30:47;;;;;;;4.30;2.83;;;;;;;27.54;43.00;99484.97;4987367;28;20542;-76
2023/09/06 10:33:44;;;;;;;5.47;3.30;;;;;;;27.55;42.77;99479.47;4974224;28;20038;-76
2023/09/06 10:36:12;;;;;;;4.20;3.08;;;;;;;27.57;42.90;99477.53;4972715;28;20509;-76
2023/09/06 10:38:52;;;;;;;5.43;2.83;;;;;;;27.58;42.86;99486.41;4974055;28;20140;-76
2023/09/06 10:41:18;;;;;;;5.70;2.97;;;;;;;27.58;42.73;99479.25;4986474;28;20034;-76
2023/09/06 10:44:01;;;;;;;4.13;2.45;;;;;;;27.60;42.99;99484.47;4993468;28;20459;-76
2023/09/06 10:46:34;;;;;;;5.80;3.10;;;;;;;27.60;43.08;99487.97;4993425;28;20030;-76
2023/09/06 10:49:19;;;;;;;5.15;3.00;;;;;;;27.61;42.87;99472.75;4993176;28;20030;-76
2023/09/06 10:52:04;;;;;;;5.63;3.00;;;;;;;27.63;42.82;99475.28;4975634;28;20031;-76
2023/09/06 10:54:35;;;;;;;5.55;3.03;;;;;;;27.64;42.93;99474.31;4973838;28;20487;-76
2023/09/06 10:57:03;;;;;;;4.32;2.97;;;;;;;27.64;43.01;99477.84;4973876;28;20648;-76
2023/09/06 10:59:29;;;;;;;4.97;2.90;;;;;;;27.65;42.83;99473.34;4973542;28;20031;-76
2023/09/06 11:02:08;;;;;;;5.22;2.95;;;;;;;27.66;43.08;99466.97;4990016;28;20562;-77
2023/09/06 11:04:34;;;;;;;5.18;3.10;;;;;;;27.66;42.64;99458.94;4988275;28;20030;-77
2023/09/06 11:07:02;;;;;;;5.97;3.33;;;;;;;27.70;42.71;99460.38;4972663;28;20027;-75
2023/09/06 11:09:29;;;;;;;4.13;2.80;;;;;;;27.71;42.80;99464.75;4973490;28;20030;-76
2023/09/06 11:11:56;;;;;;;4.55;3.00;;;;;;;27.72;43.09;99448.53;4990414;28;20022;-76
2023/09/06 11:14:28;;;;;;;6.38;3.10;;;;;;;27.73;42.95;99454.72;4993087;28;20392;-76
2023/09/06 11:16:53;;;;;;;6.78;3.40;;;;;;;27.74;43.26;99451.03;4992966;28;20030;-76
2023/09/06 11:19:27;;;;;;;5.28;3.08;;;;;;;27.75;43.16;99442.03;4992595;28;20028;-76
2023/09/06 11:22:10;;;;;;;5.00;3.38;;;;;;;27.76;42.91;99446.41;4980339;28;20121;-76
2023/09/06 11:24:37;;;;;;;5.75;2.70;;;;;;;27.78;43.36;99447.09;4992270;28;20030;-75
2023/09/06 11:27:22;;;;;;;5.68;3.20;;;;;;;27.78;43.24;99441.75;4992760;28;20026;-76
2023/09/06 11:30:09;;;;;;;5.55;3.08;;;;;;;27.78;42.99;99428.34;4992599;28;20566;-76
2023/09/06 11:32:35;;;;;;;6.28;3.40;;;;;;;27.80;43.30;99425.53;4982912;28;20054;-76
2023/09/06 11:35:03;;;;;;;4.82;3.05;;;;;;;27.80;43.15;99429.03;4992458;28;20057;-76
2023/09/06 11:37:30;;;;;;;5.80;3.22;;;;;;;27.82;42.73;99429.75;4992761;28;20030;-76
2023/09/06 11:39:57;;;;;;;6.32;3.30;;;;;;;27.84;42.88;99424.28;4992628;28;20386;-76